sensor_id;sensor_type;location;lat;lon;timestamp;P1;durP1;ratioP1;P2;durP2;ratioP2
25435;SDS011;13363;52.772;-3.890;2022-10-22T00:00:10;7.70;;;1.37;;
25435;SDS011;13363;52.772;-3.890;2022-10-22T00:02:38;3.40;;;1.63;;
25435;SDS011;13363;52.772;-3.890;2022-10-22T00:05:04;15.60;;;2.90;;
25435;SDS011;13363;52.772;-3.890;2022-10-22T00:07:30;8.27;;;2.00;;
25435;SDS011;13363;52.772;-3.890;2022-10-22T00:09:57;8.70;;;2.10;;
25435;SDS011;13363;52.772;-3.890;2022-10-22T00:12:23;13.17;;;2.87;;
25435;SDS011;13363;52.772;-3.890;2022-10-22T00:14:50;6.30;;;2.10;;
25435;SDS011;13363;52.772;-3.890;2022-10-22T00:17:16;12.43;;;2.60;;
25435;SDS011;13363;52.772;-3.890;2022-10-22T00:19:42;7.90;;;2.30;;
25435;SDS011;13363;52.772;-3.890;2022-10-22T00:22:09;13.13;;;2.37;;
25435;SDS011;13363;52.772;-3.890;2022-10-22T00:24:35;10.27;;;2.57;;
25435;SDS011;13363;52.772;-3.890;2022-10-22T00:27:02;7.60;;;2.40;;
25435;SDS011;13363;52.772;-3.890;2022-10-22T00:29:29;10.40;;;2.07;;
25435;SDS011;13363;52.772;-3.890;2022-10-22T00:31:55;13.53;;;2.47;;
25435;SDS011;13363;52.772;-3.890;2022-10-22T00:34:21;7.17;;;2.40;;
25435;SDS011;13363;52.772;-3.890;2022-10-22T00:36:47;14.10;;;3.83;;
25435;SDS011;13363;52.772;-3.890;2022-10-22T00:39:14;11.67;;;3.10;;
25435;SDS011;13363;52.772;-3.890;2022-10-22T00:41:42;13.60;;;2.63;;
25435;SDS011;13363;52.772;-3.890;2022-10-22T00:47:12;6.30;;;1.70;;
25435;SDS011;13363;52.772;-3.890;2022-10-22T00:49:39;7.43;;;2.27;;
25435;SDS011;13363;52.772;-3.890;2022-10-22T00:52:05;4.90;;;1.37;;
25435;SDS011;13363;52.772;-3.890;2022-10-22T00:54:32;7.67;;;1.87;;
25435;SDS011;13363;52.772;-3.890;2022-10-22T00:56:59;6.50;;;1.77;;
25435;SDS011;13363;52.772;-3.890;2022-10-22T00:59:25;3.90;;;1.80;;
25435;SDS011;13363;52.772;-3.890;2022-10-22T01:01:52;5.33;;;1.97;;
25435;SDS011;13363;52.772;-3.890;2022-10-22T01:04:18;5.23;;;1.90;;
25435;SDS011;13363;52.772;-3.890;2022-10-22T01:06:45;5.57;;;1.80;;
25435;SDS011;13363;52.772;-3.890;2022-10-22T01:09:15;2.60;;;1.17;;
25435;SDS011;13363;52.772;-3.890;2022-10-22T01:17:48;11.23;;;2.10;;
25435;SDS011;13363;52.772;-3.890;2022-10-22T01:28:57;8.00;;;1.80;;
25435;SDS011;13363;52.772;-3.890;2022-10-22T01:31:46;7.40;;;1.80;;
25435;SDS011;13363;52.772;-3.890;2022-10-22T01:34:18;8.07;;;1.63;;
25435;SDS011;13363;52.772;-3.890;2022-10-22T01:36:45;3.27;;;1.87;;
25435;SDS011;13363;52.772;-3.890;2022-10-22T01:39:12;10.57;;;2.17;;
25435;SDS011;13363;52.772;-3.890;2022-10-22T01:44:23;9.63;;;1.97;;
25435;SDS011;13363;52.772;-3.890;2022-10-22T01:47:02;11.53;;;2.70;;
25435;SDS011;13363;52.772;-3.890;2022-10-22T01:58:19;21.93;;;3.13;;
25435;SDS011;13363;52.772;-3.890;2022-10-22T02:01:02;16.77;;;2.87;;
25435;SDS011;13363;52.772;-3.890;2022-10-22T02:03:39;16.13;;;3.07;;
25435;SDS011;13363;52.772;-3.890;2022-10-22T02:06:13;12.50;;;3.43;;
25435;SDS011;13363;52.772;-3.890;2022-10-22T02:08:43;18.90;;;3.20;;
25435;SDS011;13363;52.772;-3.890;2022-10-22T02:11:11;16.37;;;3.40;;
25435;SDS011;13363;52.772;-3.890;2022-10-22T02:13:43;9.30;;;2.70;;
25435;SDS011;13363;52.772;-3.890;2022-10-22T02:16:14;8.70;;;2.43;;
25435;SDS011;13363;52.772;-3.890;2022-10-22T02:21:19;13.30;;;3.10;;
25435;SDS011;13363;52.772;-3.890;2022-10-22T02:23:45;9.80;;;2.10;;
25435;SDS011;13363;52.772;-3.890;2022-10-22T02:26:18;10.10;;;2.90;;
25435;SDS011;13363;52.772;-3.890;2022-10-22T02:29:08;4.77;;;1.80;;
25435;SDS011;13363;52.772;-3.890;2022-10-22T02:31:46;14.13;;;2.63;;
25435;SDS011;13363;52.772;-3.890;2022-10-22T02:34:17;11.00;;;2.47;;
25435;SDS011;13363;52.772;-3.890;2022-10-22T02:36:46;7.30;;;2.37;;
25435;SDS011;13363;52.772;-3.890;2022-10-22T02:39:13;5.73;;;2.13;;
25435;SDS011;13363;52.772;-3.890;2022-10-22T02:41:40;10.17;;;3.03;;
25435;SDS011;13363;52.772;-3.890;2022-10-22T02:44:10;11.20;;;2.73;;
25435;SDS011;13363;52.772;-3.890;2022-10-22T02:46:39;10.30;;;2.83;;
25435;SDS011;13363;52.772;-3.890;2022-10-22T02:49:06;12.60;;;2.40;;
25435;SDS011;13363;52.772;-3.890;2022-10-22T02:51:32;18.00;;;3.00;;
25435;SDS011;13363;52.772;-3.890;2022-10-22T02:53:58;16.20;;;3.23;;
25435;SDS011;13363;52.772;-3.890;2022-10-22T02:56:24;16.33;;;3.00;;
25435;SDS011;13363;52.772;-3.890;2022-10-22T02:58:49;20.43;;;4.13;;
25435;SDS011;13363;52.772;-3.890;2022-10-22T03:01:15;16.50;;;3.40;;
25435;SDS011;13363;52.772;-3.890;2022-10-22T03:03:41;15.80;;;3.20;;
25435;SDS011;13363;52.772;-3.890;2022-10-22T03:06:07;16.73;;;3.40;;
25435;SDS011;13363;52.772;-3.890;2022-10-22T03:08:33;16.27;;;3.00;;
25435;SDS011;13363;52.772;-3.890;2022-10-22T03:10:58;12.93;;;3.67;;
25435;SDS011;13363;52.772;-3.890;2022-10-22T03:13:24;14.73;;;3.07;;
25435;SDS011;13363;52.772;-3.890;2022-10-22T03:15:50;19.87;;;3.30;;
25435;SDS011;13363;52.772;-3.890;2022-10-22T03:18:16;19.57;;;3.90;;
25435;SDS011;13363;52.772;-3.890;2022-10-22T03:20:42;14.67;;;3.27;;
25435;SDS011;13363;52.772;-3.890;2022-10-22T03:23:09;16.57;;;3.37;;
25435;SDS011;13363;52.772;-3.890;2022-10-22T03:25:36;12.70;;;2.97;;
25435;SDS011;13363;52.772;-3.890;2022-10-22T03:28:05;18.43;;;3.37;;
25435;SDS011;13363;52.772;-3.890;2022-10-22T03:30:33;12.83;;;3.10;;
25435;SDS011;13363;52.772;-3.890;2022-10-22T03:32:59;12.60;;;3.73;;
25435;SDS011;13363;52.772;-3.890;2022-10-22T03:35:25;18.83;;;3.20;;
25435;SDS011;13363;52.772;-3.890;2022-10-22T03:37:51;19.33;;;3.77;;
25435;SDS011;13363;52.772;-3.890;2022-10-22T03:40:17;13.77;;;3.70;;
25435;SDS011;13363;52.772;-3.890;2022-10-22T03:42:43;13.67;;;3.23;;
25435;SDS011;13363;52.772;-3.890;2022-10-22T03:45:09;17.80;;;4.03;;
25435;SDS011;13363;52.772;-3.890;2022-10-22T03:47:35;11.43;;;3.37;;
25435;SDS011;13363;52.772;-3.890;2022-10-22T03:50:02;19.93;;;4.10;;
25435;SDS011;13363;52.772;-3.890;2022-10-22T03:52:33;11.70;;;3.90;;
25435;SDS011;13363;52.772;-3.890;2022-10-22T03:55:00;16.03;;;3.67;;
25435;SDS011;13363;52.772;-3.890;2022-10-22T03:57:26;18.63;;;3.97;;
25435;SDS011;13363;52.772;-3.890;2022-10-22T03:59:52;13.80;;;3.70;;
25435;SDS011;13363;52.772;-3.890;2022-10-22T04:02:18;21.47;;;3.77;;
25435;SDS011;13363;52.772;-3.890;2022-10-22T04:04:44;22.80;;;3.60;;
25435;SDS011;13363;52.772;-3.890;2022-10-22T04:07:09;16.13;;;3.77;;
25435;SDS011;13363;52.772;-3.890;2022-10-22T04:09:35;13.17;;;3.43;;
25435;SDS011;13363;52.772;-3.890;2022-10-22T04:12:01;12.33;;;2.90;;
25435;SDS011;13363;52.772;-3.890;2022-10-22T04:14:29;20.67;;;3.63;;
25435;SDS011;13363;52.772;-3.890;2022-10-22T04:16:55;16.87;;;3.73;;
25435;SDS011;13363;52.772;-3.890;2022-10-22T04:19:21;9.73;;;2.57;;
25435;SDS011;13363;52.772;-3.890;2022-10-22T04:21:46;15.70;;;3.03;;
25435;SDS011;13363;52.772;-3.890;2022-10-22T04:24:12;9.67;;;2.57;;
25435;SDS011;13363;52.772;-3.890;2022-10-22T04:26:38;18.03;;;3.43;;
25435;SDS011;13363;52.772;-3.890;2022-10-22T04:29:05;15.80;;;3.17;;
25435;SDS011;13363;52.772;-3.890;2022-10-22T04:31:31;16.30;;;3.30;;
25435;SDS011;13363;52.772;-3.890;2022-10-22T04:33:58;12.50;;;3.23;;
25435;SDS011;13363;52.772;-3.890;2022-10-22T04:36:24;12.47;;;2.83;;
25435;SDS011;13363;52.772;-3.890;2022-10-22T04:38:56;15.70;;;3.43;;
25435;SDS011;13363;52.772;-3.890;2022-10-22T04:41:24;29.93;;;3.97;;
25435;SDS011;13363;52.772;-3.890;2022-10-22T04:43:52;13.97;;;3.40;;
25435;SDS011;13363;52.772;-3.890;2022-10-22T04:46:19;13.53;;;3.20;;
25435;SDS011;13363;52.772;-3.890;2022-10-22T04:48:45;14.03;;;3.47;;
25435;SDS011;13363;52.772;-3.890;2022-10-22T04:51:13;12.87;;;2.57;;
25435;SDS011;13363;52.772;-3.890;2022-10-22T04:53:41;15.73;;;3.47;;
25435;SDS011;13363;52.772;-3.890;2022-10-22T04:56:08;13.37;;;2.40;;
25435;SDS011;13363;52.772;-3.890;2022-10-22T04:58:44;11.40;;;2.90;;
25435;SDS011;13363;52.772;-3.890;2022-10-22T05:01:22;14.80;;;3.10;;
25435;SDS011;13363;52.772;-3.890;2022-10-22T05:03:50;9.97;;;2.70;;
25435;SDS011;13363;52.772;-3.890;2022-10-22T05:06:17;19.13;;;3.80;;
25435;SDS011;13363;52.772;-3.890;2022-10-22T05:08:45;13.30;;;3.10;;
25435;SDS011;13363;52.772;-3.890;2022-10-22T05:11:12;17.60;;;3.00;;
25435;SDS011;13363;52.772;-3.890;2022-10-22T05:13:39;9.73;;;2.97;;
25435;SDS011;13363;52.772;-3.890;2022-10-22T05:16:05;18.53;;;3.20;;
25435;SDS011;13363;52.772;-3.890;2022-10-22T05:18:35;11.30;;;2.90;;
25435;SDS011;13363;52.772;-3.890;2022-10-22T05:21:03;18.80;;;3.73;;
25435;SDS011;13363;52.772;-3.890;2022-10-22T05:23:32;14.80;;;3.30;;
25435;SDS011;13363;52.772;-3.890;2022-10-22T05:26:00;15.77;;;3.30;;
25435;SDS011;13363;52.772;-3.890;2022-10-22T05:28:27;19.17;;;3.77;;
25435;SDS011;13363;52.772;-3.890;2022-10-22T05:30:54;9.73;;;2.93;;
25435;SDS011;13363;52.772;-3.890;2022-10-22T05:33:22;10.70;;;2.60;;
25435;SDS011;13363;52.772;-3.890;2022-10-22T05:35:48;14.83;;;2.50;;
25435;SDS011;13363;52.772;-3.890;2022-10-22T05:38:15;12.43;;;3.03;;
25435;SDS011;13363;52.772;-3.890;2022-10-22T05:40:41;18.93;;;3.43;;
25435;SDS011;13363;52.772;-3.890;2022-10-22T05:43:07;12.80;;;3.50;;
25435;SDS011;13363;52.772;-3.890;2022-10-22T05:45:37;12.50;;;3.00;;
25435;SDS011;13363;52.772;-3.890;2022-10-22T05:48:04;12.43;;;2.63;;
25435;SDS011;13363;52.772;-3.890;2022-10-22T05:50:30;12.90;;;3.33;;
25435;SDS011;13363;52.772;-3.890;2022-10-22T05:52:56;15.07;;;3.00;;
25435;SDS011;13363;52.772;-3.890;2022-10-22T05:55:22;13.07;;;2.77;;
25435;SDS011;13363;52.772;-3.890;2022-10-22T05:57:48;14.37;;;3.17;;
25435;SDS011;13363;52.772;-3.890;2022-10-22T06:00:14;10.83;;;2.57;;
25435;SDS011;13363;52.772;-3.890;2022-10-22T06:02:41;11.10;;;3.20;;
25435;SDS011;13363;52.772;-3.890;2022-10-22T06:05:07;13.77;;;3.57;;
25435;SDS011;13363;52.772;-3.890;2022-10-22T06:07:33;14.47;;;3.00;;
25435;SDS011;13363;52.772;-3.890;2022-10-22T06:10:00;9.63;;;3.03;;
25435;SDS011;13363;52.772;-3.890;2022-10-22T06:12:26;20.50;;;3.77;;
25435;SDS011;13363;52.772;-3.890;2022-10-22T06:14:52;16.10;;;2.77;;
25435;SDS011;13363;52.772;-3.890;2022-10-22T06:17:18;13.13;;;3.67;;
25435;SDS011;13363;52.772;-3.890;2022-10-22T06:19:44;12.00;;;2.90;;
25435;SDS011;13363;52.772;-3.890;2022-10-22T06:22:10;12.80;;;2.83;;
25435;SDS011;13363;52.772;-3.890;2022-10-22T06:24:35;14.03;;;3.50;;
25435;SDS011;13363;52.772;-3.890;2022-10-22T06:27:01;23.27;;;3.07;;
25435;SDS011;13363;52.772;-3.890;2022-10-22T06:29:27;18.00;;;3.83;;
25435;SDS011;13363;52.772;-3.890;2022-10-22T06:31:53;16.43;;;3.50;;
25435;SDS011;13363;52.772;-3.890;2022-10-22T06:34:19;15.70;;;3.00;;
25435;SDS011;13363;52.772;-3.890;2022-10-22T06:36:45;16.60;;;3.10;;
25435;SDS011;13363;52.772;-3.890;2022-10-22T06:39:11;12.13;;;3.63;;
25435;SDS011;13363;52.772;-3.890;2022-10-22T06:41:39;10.37;;;2.70;;
25435;SDS011;13363;52.772;-3.890;2022-10-22T06:44:05;14.00;;;3.20;;
25435;SDS011;13363;52.772;-3.890;2022-10-22T06:46:31;16.00;;;3.50;;
25435;SDS011;13363;52.772;-3.890;2022-10-22T06:49:00;19.10;;;3.17;;
25435;SDS011;13363;52.772;-3.890;2022-10-22T06:51:27;16.13;;;2.90;;
25435;SDS011;13363;52.772;-3.890;2022-10-22T06:53:54;14.40;;;2.70;;
25435;SDS011;13363;52.772;-3.890;2022-10-22T06:56:21;18.50;;;2.90;;
25435;SDS011;13363;52.772;-3.890;2022-10-22T06:58:49;16.77;;;2.80;;
25435;SDS011;13363;52.772;-3.890;2022-10-22T07:01:17;12.97;;;2.87;;
25435;SDS011;13363;52.772;-3.890;2022-10-22T07:03:44;11.03;;;2.60;;
25435;SDS011;13363;52.772;-3.890;2022-10-22T07:06:11;7.77;;;2.80;;
25435;SDS011;13363;52.772;-3.890;2022-10-22T07:08:39;12.40;;;3.13;;
25435;SDS011;13363;52.772;-3.890;2022-10-22T07:11:06;17.73;;;3.17;;
25435;SDS011;13363;52.772;-3.890;2022-10-22T07:13:37;13.50;;;2.73;;
25435;SDS011;13363;52.772;-3.890;2022-10-22T07:16:03;14.13;;;2.87;;
25435;SDS011;13363;52.772;-3.890;2022-10-22T07:18:30;7.30;;;2.43;;
25435;SDS011;13363;52.772;-3.890;2022-10-22T07:20:56;10.97;;;2.80;;
25435;SDS011;13363;52.772;-3.890;2022-10-22T07:23:22;15.70;;;2.60;;
25435;SDS011;13363;52.772;-3.890;2022-10-22T07:25:48;10.13;;;2.60;;
25435;SDS011;13363;52.772;-3.890;2022-10-22T07:28:14;13.03;;;3.13;;
25435;SDS011;13363;52.772;-3.890;2022-10-22T07:30:39;6.90;;;2.30;;
25435;SDS011;13363;52.772;-3.890;2022-10-22T07:33:05;11.57;;;2.77;;
25435;SDS011;13363;52.772;-3.890;2022-10-22T07:35:32;10.03;;;2.30;;
25435;SDS011;13363;52.772;-3.890;2022-10-22T07:37:58;8.40;;;2.20;;
25435;SDS011;13363;52.772;-3.890;2022-10-22T07:40:25;11.10;;;3.20;;
25435;SDS011;13363;52.772;-3.890;2022-10-22T07:42:51;10.27;;;2.63;;
25435;SDS011;13363;52.772;-3.890;2022-10-22T07:45:17;8.87;;;2.30;;
25435;SDS011;13363;52.772;-3.890;2022-10-22T07:47:43;9.87;;;2.60;;
25435;SDS011;13363;52.772;-3.890;2022-10-22T07:50:09;14.03;;;2.40;;
25435;SDS011;13363;52.772;-3.890;2022-10-22T07:52:34;13.33;;;2.70;;
25435;SDS011;13363;52.772;-3.890;2022-10-22T07:55:00;13.00;;;2.10;;
25435;SDS011;13363;52.772;-3.890;2022-10-22T07:57:26;14.73;;;3.40;;
25435;SDS011;13363;52.772;-3.890;2022-10-22T07:59:52;13.10;;;2.50;;
25435;SDS011;13363;52.772;-3.890;2022-10-22T08:02:18;14.47;;;2.50;;
25435;SDS011;13363;52.772;-3.890;2022-10-22T08:04:43;10.03;;;2.50;;
25435;SDS011;13363;52.772;-3.890;2022-10-22T08:07:09;11.33;;;2.83;;
25435;SDS011;13363;52.772;-3.890;2022-10-22T08:09:35;11.20;;;2.63;;
25435;SDS011;13363;52.772;-3.890;2022-10-22T08:12:01;10.33;;;2.30;;
25435;SDS011;13363;52.772;-3.890;2022-10-22T08:14:26;7.37;;;2.47;;
25435;SDS011;13363;52.772;-3.890;2022-10-22T08:16:53;9.77;;;2.50;;
25435;SDS011;13363;52.772;-3.890;2022-10-22T08:19:18;8.40;;;2.43;;
25435;SDS011;13363;52.772;-3.890;2022-10-22T08:21:45;15.60;;;3.00;;
25435;SDS011;13363;52.772;-3.890;2022-10-22T08:24:12;12.87;;;3.60;;
25435;SDS011;13363;52.772;-3.890;2022-10-22T08:26:38;11.93;;;2.33;;
25435;SDS011;13363;52.772;-3.890;2022-10-22T08:29:04;9.57;;;2.40;;
25435;SDS011;13363;52.772;-3.890;2022-10-22T08:31:31;14.03;;;2.37;;
25435;SDS011;13363;52.772;-3.890;2022-10-22T08:33:57;9.73;;;2.73;;
25435;SDS011;13363;52.772;-3.890;2022-10-22T08:36:23;5.40;;;1.87;;
25435;SDS011;13363;52.772;-3.890;2022-10-22T08:38:49;11.60;;;2.63;;
25435;SDS011;13363;52.772;-3.890;2022-10-22T08:41:16;9.90;;;2.03;;
25435;SDS011;13363;52.772;-3.890;2022-10-22T08:49:23;10.33;;;2.33;;
25435;SDS011;13363;52.772;-3.890;2022-10-22T08:51:53;8.63;;;2.50;;
25435;SDS011;13363;52.772;-3.890;2022-10-22T08:55:24;9.03;;;2.47;;
25435;SDS011;13363;52.772;-3.890;2022-10-22T09:00:05;7.30;;;2.20;;
25435;SDS011;13363;52.772;-3.890;2022-10-22T09:05:32;8.43;;;1.70;;
25435;SDS011;13363;52.772;-3.890;2022-10-22T09:08:12;6.63;;;2.00;;
25435;SDS011;13363;52.772;-3.890;2022-10-22T09:10:48;5.90;;;1.77;;
25435;SDS011;13363;52.772;-3.890;2022-10-22T09:13:35;9.47;;;1.80;;
25435;SDS011;13363;52.772;-3.890;2022-10-22T09:16:21;8.13;;;2.07;;
25435;SDS011;13363;52.772;-3.890;2022-10-22T09:19:05;5.17;;;1.80;;
25435;SDS011;13363;52.772;-3.890;2022-10-22T09:24:35;8.77;;;1.83;;
25435;SDS011;13363;52.772;-3.890;2022-10-22T09:27:26;10.03;;;2.13;;
25435;SDS011;13363;52.772;-3.890;2022-10-22T09:29:56;5.00;;;1.67;;
25435;SDS011;13363;52.772;-3.890;2022-10-22T09:32:24;3.67;;;1.83;;
25435;SDS011;13363;52.772;-3.890;2022-10-22T09:34:53;7.27;;;2.00;;
25435;SDS011;13363;52.772;-3.890;2022-10-22T09:37:24;4.73;;;1.73;;
25435;SDS011;13363;52.772;-3.890;2022-10-22T09:39:53;5.23;;;1.70;;
25435;SDS011;13363;52.772;-3.890;2022-10-22T09:42:21;6.50;;;2.50;;
25435;SDS011;13363;52.772;-3.890;2022-10-22T09:44:54;6.43;;;2.10;;
25435;SDS011;13363;52.772;-3.890;2022-10-22T09:52:57;8.63;;;2.40;;
25435;SDS011;13363;52.772;-3.890;2022-10-22T09:55:25;5.70;;;1.57;;
25435;SDS011;13363;52.772;-3.890;2022-10-22T09:57:53;7.60;;;2.30;;
25435;SDS011;13363;52.772;-3.890;2022-10-22T10:00:20;4.85;;;1.80;;
25435;SDS011;13363;52.772;-3.890;2022-10-22T10:02:52;11.37;;;2.70;;
25435;SDS011;13363;52.772;-3.890;2022-10-22T10:05:23;6.67;;;2.13;;
25435;SDS011;13363;52.772;-3.890;2022-10-22T10:07:55;5.87;;;1.70;;
25435;SDS011;13363;52.772;-3.890;2022-10-22T10:10:36;8.83;;;1.93;;
25435;SDS011;13363;52.772;-3.890;2022-10-22T10:24:30;4.73;;;1.53;;
25435;SDS011;13363;52.772;-3.890;2022-10-22T10:27:42;8.00;;;1.90;;
25435;SDS011;13363;52.772;-3.890;2022-10-22T10:30:19;5.77;;;1.70;;
25435;SDS011;13363;52.772;-3.890;2022-10-22T10:32:56;5.43;;;1.40;;
25435;SDS011;13363;52.772;-3.890;2022-10-22T10:35:41;4.77;;;1.87;;
25435;SDS011;13363;52.772;-3.890;2022-10-22T10:41:28;6.40;;;1.70;;
25435;SDS011;13363;52.772;-3.890;2022-10-22T10:47:22;6.87;;;2.07;;
25435;SDS011;13363;52.772;-3.890;2022-10-22T10:49:56;6.47;;;2.10;;
25435;SDS011;13363;52.772;-3.890;2022-10-22T10:52:43;5.43;;;1.70;;
25435;SDS011;13363;52.772;-3.890;2022-10-22T10:58:02;2.30;;;1.10;;
25435;SDS011;13363;52.772;-3.890;2022-10-22T11:00:35;7.32;;;1.92;;
25435;SDS011;13363;52.772;-3.890;2022-10-22T11:06:18;4.53;;;1.80;;
25435;SDS011;13363;52.772;-3.890;2022-10-22T11:08:49;6.47;;;2.00;;
25435;SDS011;13363;52.772;-3.890;2022-10-22T11:11:38;5.67;;;2.40;;
25435;SDS011;13363;52.772;-3.890;2022-10-22T11:14:10;10.97;;;2.17;;
25435;SDS011;13363;52.772;-3.890;2022-10-22T11:16:47;5.37;;;1.50;;
25435;SDS011;13363;52.772;-3.890;2022-10-22T11:19:34;7.80;;;1.90;;
25435;SDS011;13363;52.772;-3.890;2022-10-22T11:22:12;2.70;;;1.30;;
25435;SDS011;13363;52.772;-3.890;2022-10-22T11:25:44;5.88;;;1.80;;
25435;SDS011;13363;52.772;-3.890;2022-10-22T11:30:15;7.10;;;1.50;;
25435;SDS011;13363;52.772;-3.890;2022-10-22T11:32:45;6.40;;;1.80;;
25435;SDS011;13363;52.772;-3.890;2022-10-22T11:35:17;7.63;;;2.10;;
25435;SDS011;13363;52.772;-3.890;2022-10-22T11:37:48;5.57;;;1.50;;
25435;SDS011;13363;52.772;-3.890;2022-10-22T11:40:21;5.33;;;2.00;;
25435;SDS011;13363;52.772;-3.890;2022-10-22T11:43:02;4.80;;;1.37;;
25435;SDS011;13363;52.772;-3.890;2022-10-22T11:45:36;10.30;;;1.97;;
25435;SDS011;13363;52.772;-3.890;2022-10-22T11:50:47;5.93;;;1.77;;
25435;SDS011;13363;52.772;-3.890;2022-10-22T11:56:02;7.20;;;2.17;;
25435;SDS011;13363;52.772;-3.890;2022-10-22T11:58:46;4.67;;;1.77;;
25435;SDS011;13363;52.772;-3.890;2022-10-22T12:01:21;5.77;;;1.50;;
25435;SDS011;13363;52.772;-3.890;2022-10-22T12:06:51;6.63;;;1.90;;
25435;SDS011;13363;52.772;-3.890;2022-10-22T12:09:25;7.63;;;1.80;;
25435;SDS011;13363;52.772;-3.890;2022-10-22T12:11:54;4.90;;;1.90;;
25435;SDS011;13363;52.772;-3.890;2022-10-22T12:17:15;8.30;;;1.80;;
25435;SDS011;13363;52.772;-3.890;2022-10-22T12:19:43;5.07;;;1.80;;
25435;SDS011;13363;52.772;-3.890;2022-10-22T12:22:15;4.70;;;1.93;;
25435;SDS011;13363;52.772;-3.890;2022-10-22T12:24:51;7.20;;;1.63;;
25435;SDS011;13363;52.772;-3.890;2022-10-22T12:27:23;12.43;;;1.97;;
25435;SDS011;13363;52.772;-3.890;2022-10-22T12:29:55;11.07;;;2.10;;
25435;SDS011;13363;52.772;-3.890;2022-10-22T12:32:22;6.17;;;1.77;;
25435;SDS011;13363;52.772;-3.890;2022-10-22T12:34:56;6.23;;;2.30;;
25435;SDS011;13363;52.772;-3.890;2022-10-22T12:37:55;10.13;;;2.33;;
25435;SDS011;13363;52.772;-3.890;2022-10-22T12:40:38;5.73;;;1.90;;
25435;SDS011;13363;52.772;-3.890;2022-10-22T12:45:38;7.63;;;2.00;;
25435;SDS011;13363;52.772;-3.890;2022-10-22T12:48:07;6.63;;;1.60;;
25435;SDS011;13363;52.772;-3.890;2022-10-22T12:50:42;6.53;;;1.87;;
25435;SDS011;13363;52.772;-3.890;2022-10-22T12:55:43;5.87;;;1.73;;
25435;SDS011;13363;52.772;-3.890;2022-10-22T12:58:17;8.23;;;1.93;;
25435;SDS011;13363;52.772;-3.890;2022-10-22T13:00:45;7.93;;;2.03;;
25435;SDS011;13363;52.772;-3.890;2022-10-22T13:03:27;4.13;;;1.23;;
25435;SDS011;13363;52.772;-3.890;2022-10-22T13:06:43;12.83;;;2.10;;
25435;SDS011;13363;52.772;-3.890;2022-10-22T13:11:41;7.07;;;1.57;;
25435;SDS011;13363;52.772;-3.890;2022-10-22T13:14:34;6.33;;;1.63;;
25435;SDS011;13363;52.772;-3.890;2022-10-22T13:20:25;10.07;;;2.30;;
25435;SDS011;13363;52.772;-3.890;2022-10-22T13:23:00;5.50;;;2.10;;
25435;SDS011;13363;52.772;-3.890;2022-10-22T13:25:36;6.82;;;1.65;;
25435;SDS011;13363;52.772;-3.890;2022-10-22T13:30:50;5.73;;;1.73;;
25435;SDS011;13363;52.772;-3.890;2022-10-22T13:33:22;5.63;;;1.50;;
25435;SDS011;13363;52.772;-3.890;2022-10-22T13:35:50;5.27;;;1.40;;
25435;SDS011;13363;52.772;-3.890;2022-10-22T13:38:18;4.67;;;1.53;;
25435;SDS011;13363;52.772;-3.890;2022-10-22T13:40:46;5.43;;;1.63;;
25435;SDS011;13363;52.772;-3.890;2022-10-22T13:43:12;8.67;;;1.97;;
25435;SDS011;13363;52.772;-3.890;2022-10-22T13:45:38;7.23;;;1.50;;
25435;SDS011;13363;52.772;-3.890;2022-10-22T13:48:04;6.20;;;1.90;;
25435;SDS011;13363;52.772;-3.890;2022-10-22T13:50:36;1.93;;;1.50;;
25435;SDS011;13363;52.772;-3.890;2022-10-22T13:53:03;4.13;;;1.33;;
25435;SDS011;13363;52.772;-3.890;2022-10-22T13:55:29;3.00;;;1.37;;
25435;SDS011;13363;52.772;-3.890;2022-10-22T13:57:56;2.13;;;1.00;;
25435;SDS011;13363;52.772;-3.890;2022-10-22T14:00:25;1.73;;;0.97;;
25435;SDS011;13363;52.772;-3.890;2022-10-22T14:02:52;3.23;;;1.13;;
25435;SDS011;13363;52.772;-3.890;2022-10-22T14:05:21;2.40;;;1.00;;
25435;SDS011;13363;52.772;-3.890;2022-10-22T14:07:47;3.63;;;1.07;;
25435;SDS011;13363;52.772;-3.890;2022-10-22T14:12:43;5.37;;;1.00;;
25435;SDS011;13363;52.772;-3.890;2022-10-22T14:15:17;2.27;;;0.90;;
25435;SDS011;13363;52.772;-3.890;2022-10-22T14:17:55;2.57;;;0.70;;
25435;SDS011;13363;52.772;-3.890;2022-10-22T14:20:26;3.90;;;1.23;;
25435;SDS011;13363;52.772;-3.890;2022-10-22T14:22:56;2.17;;;0.93;;
25435;SDS011;13363;52.772;-3.890;2022-10-22T14:25:27;3.13;;;1.10;;
25435;SDS011;13363;52.772;-3.890;2022-10-22T14:27:55;3.13;;;1.43;;
25435;SDS011;13363;52.772;-3.890;2022-10-22T14:30:23;5.77;;;1.50;;
25435;SDS011;13363;52.772;-3.890;2022-10-22T14:32:49;3.70;;;1.13;;
25435;SDS011;13363;52.772;-3.890;2022-10-22T14:35:17;2.93;;;1.40;;
25435;SDS011;13363;52.772;-3.890;2022-10-22T14:37:45;1.60;;;1.00;;
25435;SDS011;13363;52.772;-3.890;2022-10-22T14:40:12;2.10;;;1.13;;
25435;SDS011;13363;52.772;-3.890;2022-10-22T14:42:40;2.57;;;1.40;;
25435;SDS011;13363;52.772;-3.890;2022-10-22T14:45:18;3.97;;;2.07;;
25435;SDS011;13363;52.772;-3.890;2022-10-22T14:47:48;3.50;;;1.13;;
25435;SDS011;13363;52.772;-3.890;2022-10-22T14:50:15;3.60;;;1.47;;
25435;SDS011;13363;52.772;-3.890;2022-10-22T14:52:42;4.37;;;1.40;;
25435;SDS011;13363;52.772;-3.890;2022-10-22T14:55:12;2.87;;;1.40;;
25435;SDS011;13363;52.772;-3.890;2022-10-22T14:57:40;2.67;;;1.50;;
25435;SDS011;13363;52.772;-3.890;2022-10-22T15:00:10;4.47;;;1.30;;
25435;SDS011;13363;52.772;-3.890;2022-10-22T15:02:38;4.33;;;1.40;;
25435;SDS011;13363;52.772;-3.890;2022-10-22T15:05:04;6.80;;;1.60;;
25435;SDS011;13363;52.772;-3.890;2022-10-22T15:07:31;5.93;;;1.17;;
25435;SDS011;13363;52.772;-3.890;2022-10-22T15:09:57;3.00;;;1.00;;
25435;SDS011;13363;52.772;-3.890;2022-10-22T15:12:23;3.93;;;1.33;;
25435;SDS011;13363;52.772;-3.890;2022-10-22T15:14:48;3.73;;;1.40;;
25435;SDS011;13363;52.772;-3.890;2022-10-22T15:17:15;5.77;;;1.63;;
25435;SDS011;13363;52.772;-3.890;2022-10-22T15:19:41;3.33;;;1.27;;
25435;SDS011;13363;52.772;-3.890;2022-10-22T15:22:08;2.23;;;1.20;;
25435;SDS011;13363;52.772;-3.890;2022-10-22T15:24:35;3.00;;;1.30;;
25435;SDS011;13363;52.772;-3.890;2022-10-22T15:27:01;4.57;;;1.47;;
25435;SDS011;13363;52.772;-3.890;2022-10-22T15:29:30;4.93;;;1.10;;
25435;SDS011;13363;52.772;-3.890;2022-10-22T15:31:56;2.17;;;1.27;;
25435;SDS011;13363;52.772;-3.890;2022-10-22T15:34:24;1.33;;;0.90;;
25435;SDS011;13363;52.772;-3.890;2022-10-22T15:36:55;2.83;;;1.00;;
25435;SDS011;13363;52.772;-3.890;2022-10-22T15:39:23;2.77;;;1.57;;
25435;SDS011;13363;52.772;-3.890;2022-10-22T15:41:49;2.10;;;1.30;;
25435;SDS011;13363;52.772;-3.890;2022-10-22T15:44:17;3.03;;;1.57;;
25435;SDS011;13363;52.772;-3.890;2022-10-22T15:46:45;4.93;;;1.60;;
25435;SDS011;13363;52.772;-3.890;2022-10-22T15:49:12;4.83;;;1.90;;
25435;SDS011;13363;52.772;-3.890;2022-10-22T15:51:40;4.10;;;1.30;;
25435;SDS011;13363;52.772;-3.890;2022-10-22T15:54:14;2.57;;;1.47;;
25435;SDS011;13363;52.772;-3.890;2022-10-22T15:56:42;4.40;;;1.60;;
25435;SDS011;13363;52.772;-3.890;2022-10-22T15:59:09;2.70;;;1.40;;
25435;SDS011;13363;52.772;-3.890;2022-10-22T16:01:36;3.00;;;1.23;;
25435;SDS011;13363;52.772;-3.890;2022-10-22T16:04:03;4.70;;;1.50;;
25435;SDS011;13363;52.772;-3.890;2022-10-22T16:06:31;6.13;;;1.70;;
25435;SDS011;13363;52.772;-3.890;2022-10-22T16:09:02;3.43;;;1.30;;
25435;SDS011;13363;52.772;-3.890;2022-10-22T16:11:30;1.73;;;1.40;;
25435;SDS011;13363;52.772;-3.890;2022-10-22T16:13:58;3.73;;;1.40;;
25435;SDS011;13363;52.772;-3.890;2022-10-22T16:16:28;2.40;;;1.60;;
25435;SDS011;13363;52.772;-3.890;2022-10-22T16:18:58;3.97;;;1.40;;
25435;SDS011;13363;52.772;-3.890;2022-10-22T16:21:24;5.57;;;1.83;;
25435;SDS011;13363;52.772;-3.890;2022-10-22T16:23:50;5.20;;;1.73;;
25435;SDS011;13363;52.772;-3.890;2022-10-22T16:26:16;3.50;;;1.80;;